createdAt,value
2022-10-01T00:00:57.948Z,16.77
2022-10-01T00:03:24.956Z,18.23
2022-10-01T00:06:10.499Z,15.70
2022-10-01T00:08:37.585Z,17.30
2022-10-01T00:11:08.226Z,13.60
2022-10-01T00:13:36.234Z,16.23
2022-10-01T00:16:04.715Z,18.23
2022-10-01T00:18:31.429Z,17.00
2022-10-01T00:20:58.126Z,17.77
2022-10-01T00:23:24.815Z,17.50
2022-10-01T00:25:52.325Z,14.40
2022-10-01T00:28:19.057Z,15.50
2022-10-01T00:30:48.824Z,18.63
2022-10-01T00:33:15.491Z,16.70
2022-10-01T00:38:26.520Z,15.23
2022-10-01T00:40:53.532Z,16.80
2022-10-01T00:43:23.521Z,14.60
2022-10-01T00:45:50.685Z,16.53
2022-10-01T00:48:17.512Z,15.90
2022-10-01T00:50:44.211Z,16.67
2022-10-01T00:53:12.061Z,17.10
2022-10-01T00:58:26.338Z,19.27
2022-10-01T01:00:54.166Z,19.70
2022-10-01T01:03:20.910Z,19.47
2022-10-01T01:05:47.928Z,20.40
2022-10-01T01:08:14.677Z,21.80
2022-10-01T01:10:41.247Z,24.13
2022-10-01T01:13:23.264Z,22.47
2022-10-01T01:15:53.967Z,24.07
2022-10-01T01:18:30.262Z,24.87
2022-10-01T01:20:56.881Z,24.93
2022-10-01T01:23:32.333Z,24.60
2022-10-01T01:26:17.690Z,25.60
2022-10-01T01:28:44.995Z,25.03
2022-10-01T01:31:14.448Z,23.90
2022-10-01T01:33:41.142Z,24.60
2022-10-01T01:36:37.146Z,24.17
2022-10-01T01:39:04.545Z,23.20
2022-10-01T01:41:33.029Z,23.90
2022-10-01T01:44:00.995Z,23.70
2022-10-01T01:46:32.055Z,23.73
2022-10-01T01:48:59.442Z,22.63
2022-10-01T01:51:34.418Z,22.87
2022-10-01T01:54:01.241Z,23.57
2022-10-01T01:56:28.091Z,22.60
2022-10-01T01:58:54.748Z,22.83
2022-10-01T02:01:31.626Z,21.73
2022-10-01T02:03:58.680Z,21.53
2022-10-01T02:06:48.615Z,21.07
2022-10-01T02:09:27.768Z,20.63
2022-10-01T02:12:07.917Z,17.67
2022-10-01T02:14:45.189Z,18.23
2022-10-01T02:17:16.732Z,20.13
2022-10-01T02:19:46.509Z,18.40
2022-10-01T02:22:14.517Z,18.53
2022-10-01T02:24:50.374Z,21.27
2022-10-01T02:27:22.773Z,22.93
2022-10-01T02:29:49.404Z,20.10
2022-10-01T02:32:16.092Z,19.73
2022-10-01T02:34:43.290Z,19.57
2022-10-01T02:37:09.939Z,18.43
2022-10-01T02:39:36.642Z,17.10
2022-10-01T02:42:03.312Z,17.63
2022-10-01T02:44:32.143Z,17.97
2022-10-01T02:49:44.668Z,15.43
2022-10-01T02:55:01.477Z,18.97
2022-10-01T03:00:14.023Z,19.23
2022-10-01T03:05:24.757Z,19.83
2022-10-01T03:07:51.498Z,19.77
2022-10-01T03:10:18.267Z,19.80
2022-10-01T03:12:47.856Z,19.63
2022-10-01T03:15:15.048Z,21.60
2022-10-01T03:17:41.723Z,21.40
2022-10-01T03:20:08.710Z,18.13
2022-10-01T03:22:35.358Z,19.97
2022-10-01T03:25:02.013Z,23.00
2022-10-01T03:27:28.670Z,18.13
2022-10-01T03:32:39.847Z,18.03
2022-10-01T03:35:06.774Z,18.40
2022-10-01T03:37:33.705Z,17.63
2022-10-01T03:40:00.442Z,20.17
2022-10-01T03:42:27.137Z,21.27
2022-10-01T03:44:53.935Z,22.87
2022-10-01T03:47:22.255Z,24.13
2022-10-01T03:49:49.184Z,21.90
2022-10-01T03:52:15.915Z,19.33
2022-10-01T03:54:42.512Z,21.97
2022-10-01T03:57:09.221Z,19.43
2022-10-01T03:59:36.200Z,18.20
2022-10-01T04:02:02.939Z,16.20
2022-10-01T04:04:29.648Z,16.17
2022-10-01T04:06:56.409Z,15.30
2022-10-01T04:09:23.033Z,17.23
2022-10-01T04:11:49.922Z,18.47
2022-10-01T04:14:16.537Z,14.93
2022-10-01T04:16:44.189Z,17.50
2022-10-01T04:19:10.936Z,17.30
2022-10-01T04:21:38.156Z,16.57
2022-10-01T04:24:05.276Z,15.97
2022-10-01T04:26:32.497Z,17.10
2022-10-01T04:28:59.169Z,17.23
2022-10-01T04:31:26.055Z,15.10
2022-10-01T04:33:57.570Z,15.40
2022-10-01T04:36:24.509Z,16.20
2022-10-01T04:38:59.350Z,14.87
2022-10-01T04:41:30.674Z,14.77
2022-10-01T04:43:59.394Z,15.50
2022-10-01T04:46:26.099Z,15.93
2022-10-01T04:48:53.314Z,17.63
2022-10-01T04:51:19.961Z,17.47
2022-10-01T04:53:47.178Z,17.53
2022-10-01T04:56:13.818Z,17.77
2022-10-01T04:58:41.374Z,16.40
2022-10-01T05:01:08.020Z,16.27
2022-10-01T05:03:34.868Z,18.63
2022-10-01T05:06:01.529Z,19.07
2022-10-01T05:08:28.749Z,21.80
2022-10-01T05:10:55.401Z,26.23
2022-10-01T05:13:22.090Z,24.10
2022-10-01T05:15:49.304Z,27.63
2022-10-01T05:18:16.008Z,27.90
2022-10-01T05:20:42.914Z,28.93
2022-10-01T05:23:09.618Z,27.27
2022-10-01T05:25:36.256Z,28.00
2022-10-01T05:28:06.035Z,25.87
2022-10-01T05:30:33.394Z,27.50
2022-10-01T05:33:01.008Z,27.07
2022-10-01T05:35:27.982Z,26.53
2022-10-01T05:37:55.389Z,28.43
2022-10-01T05:40:22.144Z,28.67
2022-10-01T05:42:48.793Z,27.50
2022-10-01T05:45:15.848Z,27.30
2022-10-01T05:47:42.780Z,27.57
2022-10-01T05:50:09.782Z,29.73
2022-10-01T05:52:36.603Z,29.57
2022-10-01T05:55:03.379Z,30.07
2022-10-01T05:57:31.243Z,30.27
2022-10-01T05:59:58.080Z,30.43
2022-10-01T06:05:08.996Z,29.63
2022-10-01T06:07:35.736Z,30.00
2022-10-01T06:10:02.416Z,30.97
2022-10-01T06:12:29.086Z,27.60
2022-10-01T06:14:55.841Z,26.20
2022-10-01T06:17:22.460Z,24.80
2022-10-01T06:19:49.325Z,24.17
2022-10-01T06:22:16.375Z,24.37
2022-10-01T06:24:43.088Z,25.67
2022-10-01T06:27:11.352Z,26.17
2022-10-01T06:32:22.956Z,26.07
2022-10-01T06:34:49.650Z,25.77
2022-10-01T06:37:16.386Z,26.63
2022-10-01T06:39:44.569Z,26.70
2022-10-01T06:42:11.272Z,26.83
2022-10-01T06:44:38.241Z,24.90
2022-10-01T06:47:07.268Z,25.80
2022-10-01T06:49:34.832Z,24.93
2022-10-01T06:52:20.079Z,23.00
2022-10-01T06:54:46.856Z,21.50
2022-10-01T06:57:13.714Z,20.07
2022-10-01T06:59:41.828Z,18.80
2022-10-01T07:02:10.071Z,17.27
2022-10-01T07:04:37.006Z,15.73
2022-10-01T07:07:03.645Z,15.03
2022-10-01T07:09:30.822Z,14.30
2022-10-01T07:11:57.610Z,14.07
2022-10-01T07:14:24.296Z,13.50
2022-10-01T07:16:51.015Z,13.73
2022-10-01T07:19:17.927Z,12.70
2022-10-01T07:21:46.931Z,12.53
2022-10-01T07:24:13.932Z,11.37
2022-10-01T07:26:40.828Z,11.60
2022-10-01T07:29:09.082Z,12.07
2022-10-01T07:31:36.574Z,11.80
2022-10-01T07:34:03.530Z,10.87
2022-10-01T07:36:30.980Z,10.20
2022-10-01T07:38:59.226Z,10.63
2022-10-01T07:41:26.041Z,10.13
2022-10-01T07:43:55.000Z,9.00
2022-10-01T07:46:21.819Z,8.70
2022-10-01T07:48:49.320Z,8.10
2022-10-01T07:51:16.092Z,8.13
2022-10-01T07:53:42.940Z,7.43
2022-10-01T07:56:09.602Z,7.30
2022-10-01T07:58:36.928Z,6.87
2022-10-01T08:01:04.342Z,7.73
2022-10-01T08:03:31.115Z,7.17
2022-10-01T08:05:58.256Z,6.63
2022-10-01T08:08:25.285Z,6.30
2022-10-01T08:10:52.074Z,6.77
2022-10-01T08:13:19.230Z,6.17
2022-10-01T08:18:38.057Z,5.37
2022-10-01T08:21:04.944Z,5.03
2022-10-01T08:23:33.566Z,4.83
2022-10-01T08:26:01.082Z,4.80
2022-10-01T08:28:27.968Z,4.43
2022-10-01T08:30:56.253Z,4.70
2022-10-01T08:33:23.805Z,5.10
2022-10-01T08:35:50.778Z,4.70
2022-10-01T08:38:19.839Z,4.73
2022-10-01T08:40:47.884Z,4.50
2022-10-01T08:43:34.600Z,4.40
2022-10-01T08:46:02.933Z,3.90
2022-10-01T08:48:31.112Z,4.03
2022-10-01T08:51:00.324Z,3.87
2022-10-01T08:53:53.034Z,4.13
2022-10-01T08:56:24.405Z,4.13
2022-10-01T08:58:54.304Z,4.07
2022-10-01T09:01:22.008Z,4.00
2022-10-01T09:03:49.148Z,4.13
2022-10-01T09:06:19.819Z,4.60
2022-10-01T09:09:05.537Z,4.10
2022-10-01T09:11:51.340Z,4.53
2022-10-01T09:14:28.478Z,4.50
2022-10-01T09:17:02.713Z,5.20
2022-10-01T09:19:34.911Z,5.60
2022-10-01T09:22:04.657Z,5.90
2022-10-01T09:24:43.326Z,5.27
2022-10-01T09:27:20.063Z,5.17
2022-10-01T09:29:58.350Z,5.47
2022-10-01T09:32:26.909Z,5.60
2022-10-01T09:34:53.620Z,5.33
2022-10-01T09:37:23.488Z,5.43
2022-10-01T09:39:53.261Z,5.57
2022-10-01T09:42:19.993Z,6.10
2022-10-01T09:44:47.687Z,6.30
2022-10-01T09:47:18.461Z,6.07
2022-10-01T09:49:46.148Z,6.20
2022-10-01T09:52:30.850Z,6.23
2022-10-01T09:55:00.296Z,5.93
2022-10-01T09:57:40.856Z,6.13
2022-10-01T10:00:10.427Z,6.07
2022-10-01T10:02:42.378Z,6.37
2022-10-01T10:05:18.439Z,6.97
2022-10-01T10:07:46.771Z,6.53
2022-10-01T10:10:26.113Z,7.10
2022-10-01T10:13:08.120Z,6.53
2022-10-01T10:15:42.385Z,7.47
2022-10-01T10:18:12.458Z,7.53
2022-10-01T10:20:40.516Z,7.03
2022-10-01T10:23:16.165Z,7.73
2022-10-01T10:25:42.997Z,7.27
2022-10-01T10:28:20.224Z,7.73
2022-10-01T10:30:47.214Z,7.50
2022-10-01T10:33:14.114Z,8.37
2022-10-01T10:35:42.144Z,6.57
2022-10-01T10:38:16.349Z,7.27
2022-10-01T10:40:43.559Z,7.60
2022-10-01T10:43:18.675Z,7.93
2022-10-01T10:45:46.818Z,7.60
2022-10-01T10:48:17.158Z,7.63
2022-10-01T10:50:44.654Z,6.53
2022-10-01T10:53:18.654Z,6.50
2022-10-01T10:55:54.645Z,7.23
2022-10-01T10:58:24.060Z,6.67
2022-10-01T11:00:50.694Z,6.53
2022-10-01T11:06:03.525Z,6.93
2022-10-01T11:08:30.362Z,6.73
2022-10-01T11:11:22.552Z,6.40
2022-10-01T11:13:52.593Z,6.97
2022-10-01T11:16:19.465Z,5.83
2022-10-01T11:18:49.516Z,6.60
2022-10-01T11:21:16.398Z,6.20
2022-10-01T11:23:49.102Z,6.47
2022-10-01T11:29:23.567Z,6.50
2022-10-01T11:31:59.107Z,6.87
2022-10-01T11:34:32.974Z,7.17
2022-10-01T11:37:02.520Z,6.77
2022-10-01T11:39:29.221Z,6.80
2022-10-01T11:41:55.973Z,6.70
2022-10-01T11:44:33.947Z,6.97
2022-10-01T11:47:21.102Z,6.90
2022-10-01T11:49:52.686Z,7.23
2022-10-01T11:52:23.532Z,7.00
2022-10-01T11:55:22.040Z,6.63
2022-10-01T11:58:10.663Z,6.80
2022-10-01T12:00:38.429Z,6.77
2022-10-01T12:03:05.429Z,6.87
2022-10-01T12:05:32.229Z,7.77
2022-10-01T12:08:12.322Z,6.77
2022-10-01T12:10:40.627Z,6.60
2022-10-01T12:13:07.684Z,7.10
2022-10-01T12:15:38.397Z,7.03
2022-10-01T12:18:12.167Z,6.87
2022-10-01T12:20:46.496Z,6.30
2022-10-01T12:23:42.809Z,6.37
2022-10-01T12:26:09.659Z,5.97
2022-10-01T12:28:40.933Z,5.97
2022-10-01T12:31:10.525Z,5.80
2022-10-01T12:33:55.473Z,6.77
2022-10-01T12:36:26.175Z,5.93
2022-10-01T12:39:03.048Z,6.60
2022-10-01T12:41:36.016Z,5.97
2022-10-01T12:44:06.094Z,6.10
2022-10-01T12:46:51.710Z,5.97
2022-10-01T12:49:25.225Z,5.70
2022-10-01T12:52:12.503Z,4.83
2022-10-01T12:54:45.833Z,5.67
2022-10-01T12:57:12.679Z,5.30
2022-10-01T12:59:40.967Z,5.20
2022-10-01T13:02:19.466Z,5.57
2022-10-01T13:04:58.604Z,5.57
2022-10-01T13:07:36.470Z,5.63
2022-10-01T13:10:06.912Z,5.40
2022-10-01T13:12:45.911Z,5.30
2022-10-01T13:15:17.845Z,5.80
2022-10-01T13:17:48.419Z,5.63
2022-10-01T13:20:16.870Z,6.07
2022-10-01T13:22:55.828Z,6.33
2022-10-01T13:25:22.953Z,6.10
2022-10-01T13:28:07.905Z,5.33
2022-10-01T13:30:36.291Z,6.33
2022-10-01T13:33:03.428Z,6.00
2022-10-01T13:35:35.460Z,6.70
2022-10-01T13:38:21.932Z,6.77
2022-10-01T13:40:56.952Z,6.87
2022-10-01T13:43:23.776Z,6.27
2022-10-01T13:45:51.231Z,5.97
2022-10-01T13:48:22.219Z,7.27
2022-10-01T13:51:03.151Z,7.10
2022-10-01T13:53:31.133Z,6.73
2022-10-01T13:55:58.809Z,7.27
2022-10-01T13:58:31.607Z,7.53
2022-10-01T14:01:00.171Z,7.40
2022-10-01T14:03:50.277Z,7.90
2022-10-01T14:06:30.630Z,7.83
2022-10-01T14:09:05.220Z,8.13
2022-10-01T14:11:51.807Z,8.10
2022-10-01T14:14:41.758Z,8.83
2022-10-01T14:17:08.816Z,8.07
2022-10-01T14:19:35.523Z,7.97
2022-10-01T14:22:02.378Z,7.73
2022-10-01T14:24:41.269Z,8.07
2022-10-01T14:27:17.467Z,7.87
2022-10-01T14:29:48.002Z,7.80
2022-10-01T14:32:21.962Z,7.83
2022-10-01T14:34:51.668Z,8.10
2022-10-01T14:37:18.467Z,7.93
2022-10-01T14:39:45.301Z,8.07
2022-10-01T14:42:18.054Z,8.10
2022-10-01T14:44:46.381Z,7.80
2022-10-01T14:47:20.346Z,7.60
2022-10-01T14:49:47.195Z,8.00
2022-10-01T14:52:22.961Z,7.90
2022-10-01T14:54:57.302Z,8.03
2022-10-01T14:57:26.794Z,7.70
2022-10-01T14:59:53.498Z,7.23
2022-10-01T15:02:21.141Z,7.83
2022-10-01T15:04:48.350Z,7.90
2022-10-01T15:07:17.243Z,9.63
2022-10-01T15:09:47.539Z,8.53
2022-10-01T15:12:14.721Z,8.67
2022-10-01T15:14:42.849Z,9.03
2022-10-01T15:17:36.214Z,8.47
2022-10-01T15:20:03.024Z,8.00
2022-10-01T15:22:29.723Z,8.10
2022-10-01T15:25:00.979Z,8.03
2022-10-01T15:27:28.170Z,8.93
2022-10-01T15:29:56.642Z,8.57
2022-10-01T15:32:23.922Z,8.43
2022-10-01T15:34:54.792Z,9.30
2022-10-01T15:37:31.840Z,12.03
2022-10-01T15:39:58.607Z,11.27
2022-10-01T15:42:26.495Z,10.53
2022-10-01T15:45:08.629Z,9.50
2022-10-01T15:47:35.375Z,10.40
2022-10-01T15:50:02.841Z,10.40
2022-10-01T15:55:42.597Z,9.37
2022-10-01T16:01:13.778Z,9.53
2022-10-01T16:03:42.644Z,9.90
2022-10-01T16:06:18.924Z,9.87
2022-10-01T16:09:09.099Z,9.80
2022-10-01T16:11:55.080Z,9.93
2022-10-01T16:14:27.962Z,10.90
2022-10-01T16:17:13.582Z,10.53
2022-10-01T16:19:40.370Z,10.83
2022-10-01T16:22:14.476Z,11.27
2022-10-01T16:24:41.891Z,12.13
2022-10-01T16:27:09.232Z,12.43
2022-10-01T16:29:35.924Z,12.30
2022-10-01T16:32:02.758Z,11.83
2022-10-01T16:34:29.896Z,12.07
2022-10-01T16:36:57.919Z,12.00
2022-10-01T16:39:25.325Z,12.77
2022-10-01T16:42:12.003Z,12.17
2022-10-01T16:44:40.758Z,12.90
2022-10-01T16:47:07.689Z,12.00
2022-10-01T16:49:35.146Z,12.00
2022-10-01T16:52:02.628Z,11.07
2022-10-01T16:54:29.540Z,11.40
2022-10-01T16:56:56.377Z,11.30
2022-10-01T16:59:23.355Z,11.27
2022-10-01T17:01:51.460Z,11.20
2022-10-01T17:04:18.746Z,10.63
2022-10-01T17:06:46.066Z,11.00
2022-10-01T17:09:13.092Z,10.80
2022-10-01T17:11:40.052Z,11.60
2022-10-01T17:14:09.770Z,11.67
2022-10-01T17:16:36.856Z,12.90
2022-10-01T17:19:03.884Z,11.80
2022-10-01T17:21:30.687Z,11.90
2022-10-01T17:23:57.531Z,11.47
2022-10-01T17:26:24.299Z,11.30
2022-10-01T17:28:51.099Z,13.63
2022-10-01T17:31:18.280Z,12.47
2022-10-01T17:33:45.744Z,12.90
2022-10-01T17:36:12.775Z,12.53
2022-10-01T17:38:40.848Z,13.00
2022-10-01T17:41:08.277Z,13.10
2022-10-01T17:43:37.323Z,12.90
2022-10-01T17:46:06.178Z,13.67
2022-10-01T17:48:33.060Z,13.57
2022-10-01T17:51:00.253Z,12.70
2022-10-01T17:53:32.460Z,14.03
2022-10-01T17:56:09.706Z,12.33
2022-10-01T17:58:39.550Z,13.53
2022-10-01T18:01:10.164Z,13.90
2022-10-01T18:03:36.997Z,15.87
2022-10-01T18:06:03.983Z,15.47
2022-10-01T18:08:51.165Z,15.83
2022-10-01T18:11:19.380Z,16.00
2022-10-01T18:13:46.372Z,16.30
2022-10-01T18:16:18.325Z,17.37
2022-10-01T18:21:33.564Z,16.80
2022-10-01T18:24:04.122Z,18.10
2022-10-01T18:26:32.219Z,18.17
2022-10-01T18:28:59.159Z,17.70
2022-10-01T18:31:28.430Z,17.90
2022-10-01T18:33:57.090Z,17.37
2022-10-01T18:36:32.252Z,17.17
2022-10-01T18:39:10.434Z,17.53
2022-10-01T18:41:37.763Z,18.57
2022-10-01T18:44:05.028Z,19.03
2022-10-01T18:46:33.123Z,19.93
2022-10-01T18:49:03.641Z,19.17
2022-10-01T18:51:36.685Z,18.07
2022-10-01T18:54:14.804Z,18.83
2022-10-01T18:56:44.831Z,18.00
2022-10-01T18:59:24.250Z,18.00
2022-10-01T19:02:01.025Z,17.20
2022-10-01T19:04:37.709Z,17.30
2022-10-01T19:07:22.890Z,17.40
2022-10-01T19:09:52.120Z,16.20
2022-10-01T19:12:36.052Z,16.03
2022-10-01T19:15:06.180Z,15.67
2022-10-01T19:17:45.218Z,13.10
2022-10-01T19:20:13.030Z,13.53
2022-10-01T19:22:43.460Z,13.47
2022-10-01T19:25:16.366Z,11.13
2022-10-01T19:27:46.527Z,9.33
2022-10-01T19:30:16.881Z,9.13
2022-10-01T19:32:56.105Z,9.03
2022-10-01T19:35:28.267Z,9.40
2022-10-01T19:38:16.758Z,9.10
2022-10-01T19:40:45.086Z,7.10
2022-10-01T19:43:20.231Z,6.93
2022-10-01T19:45:50.364Z,4.50
2022-10-01T19:48:26.795Z,4.10
2022-10-01T19:50:58.351Z,3.90
2022-10-01T19:53:31.338Z,4.07
2022-10-01T19:56:04.314Z,3.60
2022-10-01T19:58:31.281Z,3.60
2022-10-01T20:00:58.721Z,3.73
2022-10-01T20:03:41.847Z,3.90
2022-10-01T20:06:20.962Z,3.80
2022-10-01T20:08:47.896Z,3.67
2022-10-01T20:11:17.671Z,3.60
2022-10-01T20:14:03.592Z,3.87
2022-10-01T20:16:32.613Z,3.90
2022-10-01T20:19:03.325Z,4.90
2022-10-01T20:21:47.149Z,4.17
2022-10-01T20:24:29.077Z,4.37
2022-10-01T20:27:16.140Z,4.80
2022-10-01T20:29:51.146Z,4.63
2022-10-01T20:32:26.104Z,4.70
2022-10-01T20:34:56.670Z,4.90
2022-10-01T20:37:43.070Z,5.43
2022-10-01T20:40:11.683Z,4.70
2022-10-01T20:42:39.189Z,5.30
2022-10-01T20:45:07.077Z,5.40
2022-10-01T20:47:40.432Z,5.40
2022-10-01T20:50:12.486Z,5.50
2022-10-01T20:52:52.068Z,5.40
2022-10-01T20:55:26.629Z,6.10
2022-10-01T20:57:55.753Z,5.60
2022-10-01T21:00:23.481Z,5.90
2022-10-01T21:02:55.993Z,6.37
2022-10-01T21:05:26.372Z,6.00
2022-10-01T21:08:00.809Z,5.33
2022-10-01T21:10:33.742Z,5.47
2022-10-01T21:13:21.737Z,5.77
2022-10-01T21:15:53.155Z,5.57
2022-10-01T21:18:22.773Z,5.80
2022-10-01T21:20:59.488Z,5.67
2022-10-01T21:26:25.815Z,5.50
2022-10-01T21:31:56.686Z,6.13
2022-10-01T21:34:43.613Z,5.63
2022-10-01T21:37:13.005Z,6.30
2022-10-01T21:39:43.548Z,5.93
2022-10-01T21:42:14.201Z,6.00
2022-10-01T21:48:00.975Z,5.83
2022-10-01T21:50:47.747Z,5.50
2022-10-01T21:53:30.072Z,5.63
2022-10-01T21:55:58.923Z,5.80
2022-10-01T21:58:48.834Z,5.27
2022-10-01T22:01:18.594Z,5.47
2022-10-01T22:03:50.814Z,5.27
2022-10-01T22:06:56.291Z,5.23
2022-10-01T22:09:26.347Z,5.00
2022-10-01T22:11:53.766Z,5.17
2022-10-01T22:14:20.842Z,4.43
2022-10-01T22:16:52.186Z,4.23
2022-10-01T22:19:23.913Z,5.10
2022-10-01T22:21:50.839Z,4.87
2022-10-01T22:24:24.949Z,4.97
2022-10-01T22:26:55.496Z,4.40
2022-10-01T22:29:23.030Z,4.80
2022-10-01T22:31:50.637Z,4.70
2022-10-01T22:34:21.650Z,4.50
2022-10-01T22:36:55.938Z,4.80
2022-10-01T22:39:27.668Z,4.80
2022-10-01T22:42:06.419Z,4.83
2022-10-01T22:44:33.270Z,4.80
2022-10-01T22:47:15.268Z,4.37
2022-10-01T22:49:53.021Z,4.57
2022-10-01T22:52:27.730Z,4.00
2022-10-01T22:54:58.595Z,4.40
2022-10-01T22:57:43.781Z,4.83
2022-10-01T23:00:12.471Z,4.20
2022-10-01T23:02:40.077Z,4.67
2022-10-01T23:05:20.827Z,4.37
2022-10-01T23:07:50.584Z,4.87
2022-10-01T23:10:23.507Z,5.00
2022-10-01T23:12:50.804Z,5.10
2022-10-01T23:15:29.323Z,4.67
2022-10-01T23:17:56.015Z,4.53
2022-10-01T23:20:22.785Z,4.70
2022-10-01T23:23:01.779Z,4.23
2022-10-01T23:25:37.234Z,5.10
2022-10-01T23:28:07.135Z,4.83
2022-10-01T23:30:38.063Z,5.30
2022-10-01T23:33:04.808Z,5.43
2022-10-01T23:35:39.049Z,6.07
2022-10-01T23:38:08.704Z,6.40
2022-10-01T23:40:36.979Z,5.90
2022-10-01T23:43:05.687Z,5.50
2022-10-01T23:45:40.345Z,5.23
2022-10-01T23:48:09.907Z,5.07
2022-10-01T23:50:58.703Z,5.37
2022-10-01T23:53:31.514Z,5.17
2022-10-01T23:56:23.348Z,5.10
2022-10-01T23:58:54.638Z,5.77
